sensor_id;sensor_type;location;lat;lon;timestamp;temperature;humidity
69009;SHT31;56065;52.472;13.380;2023-03-13T00:01:59;7.81;87.78
69009;SHT31;56065;52.472;13.380;2023-03-13T00:04:18;7.81;88.00
69009;SHT31;56065;52.472;13.380;2023-03-13T00:06:44;7.78;87.80
69009;SHT31;56065;52.472;13.380;2023-03-13T00:09:11;7.82;87.80
69009;SHT31;56065;52.472;13.380;2023-03-13T00:11:37;7.87;88.00
69009;SHT31;56065;52.472;13.380;2023-03-13T00:14:03;8.01;87.55
69009;SHT31;56065;52.472;13.380;2023-03-13T00:16:29;7.90;87.76
69009;SHT31;56065;52.472;13.380;2023-03-13T00:18:56;7.95;87.93
69009;SHT31;56065;52.472;13.380;2023-03-13T00:21:24;8.01;87.74
69009;SHT31;56065;52.472;13.380;2023-03-13T00:23:50;7.98;88.03
69009;SHT31;56065;52.472;13.380;2023-03-13T00:26:18;7.94;88.65
69009;SHT31;56065;52.472;13.380;2023-03-13T00:28:43;8.11;88.06
69009;SHT31;56065;52.472;13.380;2023-03-13T00:31:14;8.09;88.11
69009;SHT31;56065;52.472;13.380;2023-03-13T00:33:42;8.13;88.30
69009;SHT31;56065;52.472;13.380;2023-03-13T00:36:18;8.12;88.65
69009;SHT31;56065;52.472;13.380;2023-03-13T00:38:44;8.08;88.98
69009;SHT31;56065;52.472;13.380;2023-03-13T00:41:15;8.09;88.58
69009;SHT31;56065;52.472;13.380;2023-03-13T00:43:42;8.12;88.80
69009;SHT31;56065;52.472;13.380;2023-03-13T00:46:09;8.09;88.60
69009;SHT31;56065;52.472;13.380;2023-03-13T00:48:35;8.21;88.35
69009;SHT31;56065;52.472;13.380;2023-03-13T00:51:01;8.31;88.15
69009;SHT31;56065;52.472;13.380;2023-03-13T00:53:27;8.09;88.55
69009;SHT31;56065;52.472;13.380;2023-03-13T00:58:20;8.15;88.71
69009;SHT31;56065;52.472;13.380;2023-03-13T01:00:45;8.16;88.45
69009;SHT31;56065;52.472;13.380;2023-03-13T01:03:11;8.02;89.06
69009;SHT31;56065;52.472;13.380;2023-03-13T01:05:36;7.99;89.11
69009;SHT31;56065;52.472;13.380;2023-03-13T01:08:01;7.95;89.21
69009;SHT31;56065;52.472;13.380;2023-03-13T01:10:27;8.15;88.68
69009;SHT31;56065;52.472;13.380;2023-03-13T01:12:52;8.31;88.11
69009;SHT31;56065;52.472;13.380;2023-03-13T01:15:17;8.13;88.52
69009;SHT31;56065;52.472;13.380;2023-03-13T01:17:44;8.08;88.58
69009;SHT31;56065;52.472;13.380;2023-03-13T01:20:10;8.09;88.51
69009;SHT31;56065;52.472;13.380;2023-03-13T01:22:36;8.01;88.68
69009;SHT31;56065;52.472;13.380;2023-03-13T01:25:01;8.22;88.25
69009;SHT31;56065;52.472;13.380;2023-03-13T01:27:28;8.18;88.01
69009;SHT31;56065;52.472;13.380;2023-03-13T01:29:53;8.21;87.87
69009;SHT31;56065;52.472;13.380;2023-03-13T01:32:18;8.25;87.73
69009;SHT31;56065;52.472;13.380;2023-03-13T01:34:44;8.13;88.04
69009;SHT31;56065;52.472;13.380;2023-03-13T01:37:09;8.24;87.69
69009;SHT31;56065;52.472;13.380;2023-03-13T01:39:34;8.21;87.66
69009;SHT31;56065;52.472;13.380;2023-03-13T01:41:59;8.31;87.68
69009;SHT31;56065;52.472;13.380;2023-03-13T01:44:27;8.15;87.85
69009;SHT31;56065;52.472;13.380;2023-03-13T01:46:52;8.24;87.61
69009;SHT31;56065;52.472;13.380;2023-03-13T01:49:27;8.29;87.51
69009;SHT31;56065;52.472;13.380;2023-03-13T01:52:05;8.32;87.33
69009;SHT31;56065;52.472;13.380;2023-03-13T01:57:14;8.16;87.54
69009;SHT31;56065;52.472;13.380;2023-03-13T01:59:48;8.26;87.39
69009;SHT31;56065;52.472;13.380;2023-03-13T02:02:15;8.38;86.96
69009;SHT31;56065;52.472;13.380;2023-03-13T02:04:46;8.46;86.61
69009;SHT31;56065;52.472;13.380;2023-03-13T02:07:16;8.33;86.83
69009;SHT31;56065;52.472;13.380;2023-03-13T02:09:43;8.48;86.54
69009;SHT31;56065;52.472;13.380;2023-03-13T02:12:16;8.48;86.53
69009;SHT31;56065;52.472;13.380;2023-03-13T02:14:44;8.42;86.54
69009;SHT31;56065;52.472;13.380;2023-03-13T02:17:11;8.49;86.34
69009;SHT31;56065;52.472;13.380;2023-03-13T02:19:44;8.64;85.95
69009;SHT31;56065;52.472;13.380;2023-03-13T02:22:30;8.63;85.72
69009;SHT31;56065;52.472;13.380;2023-03-13T02:25:16;8.54;86.02
69009;SHT31;56065;52.472;13.380;2023-03-13T02:27:46;8.50;86.40
69009;SHT31;56065;52.472;13.380;2023-03-13T02:30:13;8.45;86.54
69009;SHT31;56065;52.472;13.380;2023-03-13T02:32:39;8.42;86.56
69009;SHT31;56065;52.472;13.380;2023-03-13T02:35:10;8.43;86.61
69009;SHT31;56065;52.472;13.380;2023-03-13T02:37:37;8.39;86.59
69009;SHT31;56065;52.472;13.380;2023-03-13T02:40:07;8.48;86.73
69009;SHT31;56065;52.472;13.380;2023-03-13T02:42:37;8.42;86.87
69009;SHT31;56065;52.472;13.380;2023-03-13T02:45:03;8.46;86.64
69009;SHT31;56065;52.472;13.380;2023-03-13T02:47:28;8.43;86.68
69009;SHT31;56065;52.472;13.380;2023-03-13T02:49:54;8.35;87.01
69009;SHT31;56065;52.472;13.380;2023-03-13T02:52:26;8.50;86.67
69009;SHT31;56065;52.472;13.380;2023-03-13T02:54:56;8.62;86.44
69009;SHT31;56065;52.472;13.380;2023-03-13T02:57:22;8.49;87.00
69009;SHT31;56065;52.472;13.380;2023-03-13T02:59:48;8.43;86.70
69009;SHT31;56065;52.472;13.380;2023-03-13T03:02:13;8.38;87.13
69009;SHT31;56065;52.472;13.380;2023-03-13T03:04:38;8.49;86.83
69009;SHT31;56065;52.472;13.380;2023-03-13T03:07:04;8.53;87.02
69009;SHT31;56065;52.472;13.380;2023-03-13T03:09:29;8.41;87.24
69009;SHT31;56065;52.472;13.380;2023-03-13T03:11:55;8.56;86.63
69009;SHT31;56065;52.472;13.380;2023-03-13T03:14:20;8.63;86.49
69009;SHT31;56065;52.472;13.380;2023-03-13T03:16:45;8.57;86.65
69009;SHT31;56065;52.472;13.380;2023-03-13T03:19:11;8.48;86.99
69009;SHT31;56065;52.472;13.380;2023-03-13T03:21:36;8.38;87.15
69009;SHT31;56065;52.472;13.380;2023-03-13T03:24:02;8.28;87.55
69009;SHT31;56065;52.472;13.380;2023-03-13T03:26:27;8.46;87.19
69009;SHT31;56065;52.472;13.380;2023-03-13T03:28:53;8.33;87.34
69009;SHT31;56065;52.472;13.380;2023-03-13T03:31:18;8.46;87.49
69009;SHT31;56065;52.472;13.380;2023-03-13T03:33:44;8.54;87.17
69009;SHT31;56065;52.472;13.380;2023-03-13T03:36:13;8.45;87.69
69009;SHT31;56065;52.472;13.380;2023-03-13T03:38:39;8.48;87.41
69009;SHT31;56065;52.472;13.380;2023-03-13T03:41:05;8.52;87.76
69009;SHT31;56065;52.472;13.380;2023-03-13T03:43:33;8.29;88.02
69009;SHT31;56065;52.472;13.380;2023-03-13T03:45:58;8.31;88.07
69009;SHT31;56065;52.472;13.380;2023-03-13T03:48:23;8.33;88.09
69009;SHT31;56065;52.472;13.380;2023-03-13T03:50:49;8.52;87.66
69009;SHT31;56065;52.472;13.380;2023-03-13T03:53:14;8.49;87.77
69009;SHT31;56065;52.472;13.380;2023-03-13T03:55:40;8.57;87.29
69009;SHT31;56065;52.472;13.380;2023-03-13T03:58:05;8.59;87.50
69009;SHT31;56065;52.472;13.380;2023-03-13T04:00:31;8.59;87.37
69009;SHT31;56065;52.472;13.380;2023-03-13T04:02:56;8.56;87.38
69009;SHT31;56065;52.472;13.380;2023-03-13T04:05:22;8.62;87.54
69009;SHT31;56065;52.472;13.380;2023-03-13T04:07:48;8.60;87.51
69009;SHT31;56065;52.472;13.380;2023-03-13T04:10:13;8.56;87.38
69009;SHT31;56065;52.472;13.380;2023-03-13T04:12:39;8.76;86.82
69009;SHT31;56065;52.472;13.380;2023-03-13T04:15:05;8.72;87.07
69009;SHT31;56065;52.472;13.380;2023-03-13T04:17:31;8.74;87.11
69009;SHT31;56065;52.472;13.380;2023-03-13T04:19:57;8.83;86.86
69009;SHT31;56065;52.472;13.380;2023-03-13T04:22:23;8.62;87.35
69009;SHT31;56065;52.472;13.380;2023-03-13T04:24:48;8.76;87.03
69009;SHT31;56065;52.472;13.380;2023-03-13T04:27:13;8.70;87.17
69009;SHT31;56065;52.472;13.380;2023-03-13T04:29:39;8.60;87.54
69009;SHT31;56065;52.472;13.380;2023-03-13T04:32:04;8.63;87.53
69009;SHT31;56065;52.472;13.380;2023-03-13T04:34:30;8.84;86.94
69009;SHT31;56065;52.472;13.380;2023-03-13T04:36:55;8.91;86.50
69009;SHT31;56065;52.472;13.380;2023-03-13T04:39:21;8.90;86.78
69009;SHT31;56065;52.472;13.380;2023-03-13T04:41:51;8.76;86.90
69009;SHT31;56065;52.472;13.380;2023-03-13T04:44:17;8.79;86.97
69009;SHT31;56065;52.472;13.380;2023-03-13T04:46:42;8.83;87.01
69009;SHT31;56065;52.472;13.380;2023-03-13T04:49:07;8.88;86.95
69009;SHT31;56065;52.472;13.380;2023-03-13T04:51:33;8.87;87.01
69009;SHT31;56065;52.472;13.380;2023-03-13T04:53:58;8.72;87.29
69009;SHT31;56065;52.472;13.380;2023-03-13T04:56:25;8.80;87.10
69009;SHT31;56065;52.472;13.380;2023-03-13T04:58:51;8.77;87.35
69009;SHT31;56065;52.472;13.380;2023-03-13T05:01:17;8.84;86.87
69009;SHT31;56065;52.472;13.380;2023-03-13T05:03:42;8.85;87.28
69009;SHT31;56065;52.472;13.380;2023-03-13T05:06:08;8.79;87.24
69009;SHT31;56065;52.472;13.380;2023-03-13T05:08:33;8.99;86.63
69009;SHT31;56065;52.472;13.380;2023-03-13T05:11:00;8.77;87.48
69009;SHT31;56065;52.472;13.380;2023-03-13T05:13:26;8.70;88.24
69009;SHT31;56065;52.472;13.380;2023-03-13T05:15:52;8.79;87.97
69009;SHT31;56065;52.472;13.380;2023-03-13T05:18:17;8.60;88.60
69009;SHT31;56065;52.472;13.380;2023-03-13T05:20:42;8.56;88.82
69009;SHT31;56065;52.472;13.380;2023-03-13T05:23:08;8.49;88.89
69009;SHT31;56065;52.472;13.380;2023-03-13T05:25:33;8.73;88.49
69009;SHT31;56065;52.472;13.380;2023-03-13T05:27:59;8.91;87.86
69009;SHT31;56065;52.472;13.380;2023-03-13T05:30:24;8.72;88.51
69009;SHT31;56065;52.472;13.380;2023-03-13T05:32:50;8.74;88.46
69009;SHT31;56065;52.472;13.380;2023-03-13T05:35:15;8.83;88.44
69009;SHT31;56065;52.472;13.380;2023-03-13T05:37:41;8.72;88.85
69009;SHT31;56065;52.472;13.380;2023-03-13T05:40:08;8.79;89.16
69009;SHT31;56065;52.472;13.380;2023-03-13T05:42:34;8.67;89.30
69009;SHT31;56065;52.472;13.380;2023-03-13T05:44:59;8.80;89.26
69009;SHT31;56065;52.472;13.380;2023-03-13T05:47:24;8.64;89.38
69009;SHT31;56065;52.472;13.380;2023-03-13T05:49:50;8.69;89.56
69009;SHT31;56065;52.472;13.380;2023-03-13T05:52:15;8.63;89.66
69009;SHT31;56065;52.472;13.380;2023-03-13T05:54:40;8.69;89.57
69009;SHT31;56065;52.472;13.380;2023-03-13T05:57:06;8.76;89.41
69009;SHT31;56065;52.472;13.380;2023-03-13T05:59:31;8.85;89.04
69009;SHT31;56065;52.472;13.380;2023-03-13T06:01:56;8.64;89.39
69009;SHT31;56065;52.472;13.380;2023-03-13T06:04:22;8.45;90.20
69009;SHT31;56065;52.472;13.380;2023-03-13T06:06:47;8.50;90.26
69009;SHT31;56065;52.472;13.380;2023-03-13T06:09:12;8.43;90.56
69009;SHT31;56065;52.472;13.380;2023-03-13T06:11:38;8.59;90.11
69009;SHT31;56065;52.472;13.380;2023-03-13T06:14:03;8.54;90.19
69009;SHT31;56065;52.472;13.380;2023-03-13T06:16:29;8.67;90.03
69009;SHT31;56065;52.472;13.380;2023-03-13T06:18:54;8.56;90.32
69009;SHT31;56065;52.472;13.380;2023-03-13T06:21:19;8.66;90.05
69009;SHT31;56065;52.472;13.380;2023-03-13T06:23:45;8.45;90.81
69009;SHT31;56065;52.472;13.380;2023-03-13T06:26:10;8.53;90.86
69009;SHT31;56065;52.472;13.380;2023-03-13T06:28:35;8.56;90.66
69009;SHT31;56065;52.472;13.380;2023-03-13T06:31:02;8.54;91.45
69009;SHT31;56065;52.472;13.380;2023-03-13T06:33:28;8.73;90.15
69009;SHT31;56065;52.472;13.380;2023-03-13T06:35:54;8.56;90.93
69009;SHT31;56065;52.472;13.380;2023-03-13T06:38:19;8.76;90.62
69009;SHT31;56065;52.472;13.380;2023-03-13T06:40:44;8.60;91.02
69009;SHT31;56065;52.472;13.380;2023-03-13T06:43:10;8.66;90.89
69009;SHT31;56065;52.472;13.380;2023-03-13T06:45:35;8.63;90.66
69009;SHT31;56065;52.472;13.380;2023-03-13T06:48:02;8.70;90.92
69009;SHT31;56065;52.472;13.380;2023-03-13T06:50:27;8.60;90.79
69009;SHT31;56065;52.472;13.380;2023-03-13T06:52:53;8.77;90.88
69009;SHT31;56065;52.472;13.380;2023-03-13T06:55:18;8.76;90.66
69009;SHT31;56065;52.472;13.380;2023-03-13T06:57:48;8.79;90.57
69009;SHT31;56065;52.472;13.380;2023-03-13T07:00:14;8.90;90.75
69009;SHT31;56065;52.472;13.380;2023-03-13T07:02:39;8.91;90.17
69009;SHT31;56065;52.472;13.380;2023-03-13T07:05:05;8.96;90.73
69009;SHT31;56065;52.472;13.380;2023-03-13T07:07:32;9.11;90.61
69009;SHT31;56065;52.472;13.380;2023-03-13T07:09:58;9.13;90.05
69009;SHT31;56065;52.472;13.380;2023-03-13T07:12:23;9.18;90.41
69009;SHT31;56065;52.472;13.380;2023-03-13T07:14:49;9.11;90.49
69009;SHT31;56065;52.472;13.380;2023-03-13T07:17:14;9.01;90.65
69009;SHT31;56065;52.472;13.380;2023-03-13T07:19:39;9.05;90.71
69009;SHT31;56065;52.472;13.380;2023-03-13T07:22:05;9.04;91.47
69009;SHT31;56065;52.472;13.380;2023-03-13T07:24:30;8.96;91.77
69009;SHT31;56065;52.472;13.380;2023-03-13T07:26:56;9.01;91.98
69009;SHT31;56065;52.472;13.380;2023-03-13T07:29:21;9.17;91.60
69009;SHT31;56065;52.472;13.380;2023-03-13T07:31:46;9.01;91.64
69009;SHT31;56065;52.472;13.380;2023-03-13T07:34:12;9.14;91.63
69009;SHT31;56065;52.472;13.380;2023-03-13T07:36:37;8.99;92.78
69009;SHT31;56065;52.472;13.380;2023-03-13T07:39:04;9.17;92.99
69009;SHT31;56065;52.472;13.380;2023-03-13T07:41:29;9.13;92.08
69009;SHT31;56065;52.472;13.380;2023-03-13T07:43:55;9.08;92.20
69009;SHT31;56065;52.472;13.380;2023-03-13T07:46:20;8.99;92.64
69009;SHT31;56065;52.472;13.380;2023-03-13T07:48:46;9.07;93.03
69009;SHT31;56065;52.472;13.380;2023-03-13T07:51:14;9.20;92.53
69009;SHT31;56065;52.472;13.380;2023-03-13T07:53:40;9.14;92.40
69009;SHT31;56065;52.472;13.380;2023-03-13T07:56:10;9.22;92.09
69009;SHT31;56065;52.472;13.380;2023-03-13T07:58:37;9.27;92.47
69009;SHT31;56065;52.472;13.380;2023-03-13T08:03:40;9.20;92.16
69009;SHT31;56065;52.472;13.380;2023-03-13T08:06:08;9.30;92.20
69009;SHT31;56065;52.472;13.380;2023-03-13T08:08:34;9.18;92.35
69009;SHT31;56065;52.472;13.380;2023-03-13T08:11:05;9.21;93.00
69009;SHT31;56065;52.472;13.380;2023-03-13T08:13:31;9.17;93.04
69009;SHT31;56065;52.472;13.380;2023-03-13T08:18:35;9.17;93.54
69009;SHT31;56065;52.472;13.380;2023-03-13T08:21:12;9.25;93.83
69009;SHT31;56065;52.472;13.380;2023-03-13T08:23:38;9.32;93.67
69009;SHT31;56065;52.472;13.380;2023-03-13T08:28:33;9.36;93.42
69009;SHT31;56065;52.472;13.380;2023-03-13T08:33:37;9.42;93.76
69009;SHT31;56065;52.472;13.380;2023-03-13T08:36:20;9.51;93.51
69009;SHT31;56065;52.472;13.380;2023-03-13T08:38:47;9.30;93.84
69009;SHT31;56065;52.472;13.380;2023-03-13T08:41:21;9.38;94.07
69009;SHT31;56065;52.472;13.380;2023-03-13T08:43:47;9.58;93.80
69009;SHT31;56065;52.472;13.380;2023-03-13T08:46:14;9.65;93.51
69009;SHT31;56065;52.472;13.380;2023-03-13T08:48:40;9.59;93.48
69009;SHT31;56065;52.472;13.380;2023-03-13T08:51:07;9.73;93.19
69009;SHT31;56065;52.472;13.380;2023-03-13T08:53:34;9.72;93.35
69009;SHT31;56065;52.472;13.380;2023-03-13T08:56:00;9.68;93.10
69009;SHT31;56065;52.472;13.380;2023-03-13T08:58:25;9.65;93.11
69009;SHT31;56065;52.472;13.380;2023-03-13T09:00:51;9.79;93.18
69009;SHT31;56065;52.472;13.380;2023-03-13T09:03:16;9.82;93.03
69009;SHT31;56065;52.472;13.380;2023-03-13T09:05:42;9.78;92.86
69009;SHT31;56065;52.472;13.380;2023-03-13T09:08:07;9.97;92.56
69009;SHT31;56065;52.472;13.380;2023-03-13T09:10:33;9.93;92.42
69009;SHT31;56065;52.472;13.380;2023-03-13T09:12:58;9.92;92.31
69009;SHT31;56065;52.472;13.380;2023-03-13T09:15:24;9.90;92.43
69009;SHT31;56065;52.472;13.380;2023-03-13T09:17:49;9.96;92.43
69009;SHT31;56065;52.472;13.380;2023-03-13T09:20:15;10.04;92.11
69009;SHT31;56065;52.472;13.380;2023-03-13T09:22:42;10.04;91.93
69009;SHT31;56065;52.472;13.380;2023-03-13T09:25:07;10.07;91.92
69009;SHT31;56065;52.472;13.380;2023-03-13T09:27:33;9.93;92.29
69009;SHT31;56065;52.472;13.380;2023-03-13T09:29:58;9.94;92.97
69009;SHT31;56065;52.472;13.380;2023-03-13T09:32:23;10.03;92.78
69009;SHT31;56065;52.472;13.380;2023-03-13T09:34:49;10.79;94.44
69009;SHT31;56065;52.472;13.380;2023-03-13T09:37:14;10.18;93.35
69009;SHT31;56065;52.472;13.380;2023-03-13T09:39:39;10.14;92.84
69009;SHT31;56065;52.472;13.380;2023-03-13T09:42:34;10.23;92.88
69009;SHT31;56065;52.472;13.380;2023-03-13T09:45:17;10.25;92.44
69009;SHT31;56065;52.472;13.380;2023-03-13T09:47:49;10.33;92.47
69009;SHT31;56065;52.472;13.380;2023-03-13T09:50:32;10.23;92.70
69009;SHT31;56065;52.472;13.380;2023-03-13T09:53:04;10.18;92.68
69009;SHT31;56065;52.472;13.380;2023-03-13T09:55:31;10.29;92.73
69009;SHT31;56065;52.472;13.380;2023-03-13T09:58:02;10.36;92.22
69009;SHT31;56065;52.472;13.380;2023-03-13T10:00:32;10.38;92.25
69009;SHT31;56065;52.472;13.380;2023-03-13T10:03:04;10.64;91.56
69009;SHT31;56065;52.472;13.380;2023-03-13T10:05:32;10.61;91.72
69009;SHT31;56065;52.472;13.380;2023-03-13T10:08:12;10.63;91.61
69009;SHT31;56065;52.472;13.380;2023-03-13T10:10:43;10.55;94.29
69009;SHT31;56065;52.472;13.380;2023-03-13T10:13:17;10.53;92.34
69009;SHT31;56065;52.472;13.380;2023-03-13T10:18:18;10.50;98.80
69009;SHT31;56065;52.472;13.380;2023-03-13T10:20:47;10.64;98.87
69009;SHT31;56065;52.472;13.380;2023-03-13T10:23:34;10.78;94.00
69009;SHT31;56065;52.472;13.380;2023-03-13T10:26:01;10.95;93.42
69009;SHT31;56065;52.472;13.380;2023-03-13T10:28:26;10.96;92.68
69009;SHT31;56065;52.472;13.380;2023-03-13T10:30:58;11.12;92.65
69009;SHT31;56065;52.472;13.380;2023-03-13T10:33:28;11.16;92.89
69009;SHT31;56065;52.472;13.380;2023-03-13T10:36:04;11.20;92.59
69009;SHT31;56065;52.472;13.380;2023-03-13T10:38:33;11.23;92.57
69009;SHT31;56065;52.472;13.380;2023-03-13T10:41:01;11.39;92.23
69009;SHT31;56065;52.472;13.380;2023-03-13T10:43:29;11.74;90.87
69009;SHT31;56065;52.472;13.380;2023-03-13T10:45:54;11.63;91.59
69009;SHT31;56065;52.472;13.380;2023-03-13T10:48:26;11.52;91.63
69009;SHT31;56065;52.472;13.380;2023-03-13T10:50:55;11.71;91.16
69009;SHT31;56065;52.472;13.380;2023-03-13T10:55:57;12.41;90.09
69009;SHT31;56065;52.472;13.380;2023-03-13T10:58:34;12.69;90.28
69009;SHT31;56065;52.472;13.380;2023-03-13T11:01:27;12.83;89.15
69009;SHT31;56065;52.472;13.380;2023-03-13T11:03:55;13.13;87.63
69009;SHT31;56065;52.472;13.380;2023-03-13T11:08:49;12.79;87.71
69009;SHT31;56065;52.472;13.380;2023-03-13T11:11:22;12.89;87.66
69009;SHT31;56065;52.472;13.380;2023-03-13T11:13:47;13.03;87.57
69009;SHT31;56065;52.472;13.380;2023-03-13T11:16:27;13.31;86.98
69009;SHT31;56065;52.472;13.380;2023-03-13T11:30:41;14.68;82.80
69009;SHT31;56065;52.472;13.380;2023-03-13T11:36:00;14.59;83.45
69009;SHT31;56065;52.472;13.380;2023-03-13T11:38:27;14.60;82.78
69009;SHT31;56065;52.472;13.380;2023-03-13T11:41:21;14.75;83.39
69009;SHT31;56065;52.472;13.380;2023-03-13T11:58:37;14.30;83.56
69009;SHT31;56065;52.472;13.380;2023-03-13T12:01:13;14.30;84.03
69009;SHT31;56065;52.472;13.380;2023-03-13T12:04:33;14.37;83.79
69009;SHT31;56065;52.472;13.380;2023-03-13T12:07:20;14.44;83.44
69009;SHT31;56065;52.472;13.380;2023-03-13T12:09:58;14.26;83.63
69009;SHT31;56065;52.472;13.380;2023-03-13T12:12:40;14.80;83.67
69009;SHT31;56065;52.472;13.380;2023-03-13T12:15:16;15.15;82.12
69009;SHT31;56065;52.472;13.380;2023-03-13T12:17:52;15.35;81.08
69009;SHT31;56065;52.472;13.380;2023-03-13T12:31:20;16.15;78.70
69009;SHT31;56065;52.472;13.380;2023-03-13T12:36:35;17.20;77.66
69009;SHT31;56065;52.472;13.380;2023-03-13T12:39:25;16.87;76.72
69009;SHT31;56065;52.472;13.380;2023-03-13T12:44:33;17.24;75.76
69009;SHT31;56065;52.472;13.380;2023-03-13T12:47:21;17.85;75.05
69009;SHT31;56065;52.472;13.380;2023-03-13T12:50:14;17.48;74.23
69009;SHT31;56065;52.472;13.380;2023-03-13T12:53:00;17.95;73.37
69009;SHT31;56065;52.472;13.380;2023-03-13T12:58:24;18.13;73.63
69009;SHT31;56065;52.472;13.380;2023-03-13T13:00:52;17.64;73.03
69009;SHT31;56065;52.472;13.380;2023-03-13T13:03:58;17.84;72.96
69009;SHT31;56065;52.472;13.380;2023-03-13T13:06:24;18.57;71.94
69009;SHT31;56065;52.472;13.380;2023-03-13T13:14:04;18.39;71.02
69009;SHT31;56065;52.472;13.380;2023-03-13T13:16:32;18.74;71.09
69009;SHT31;56065;52.472;13.380;2023-03-13T13:24:59;18.30;71.90
69009;SHT31;56065;52.472;13.380;2023-03-13T13:29:55;18.01;71.82
69009;SHT31;56065;52.472;13.380;2023-03-13T13:32:37;18.21;72.05
69009;SHT31;56065;52.472;13.380;2023-03-13T13:37:34;19.19;69.28
69009;SHT31;56065;52.472;13.380;2023-03-13T13:40:29;18.53;69.89
69009;SHT31;56065;52.472;13.380;2023-03-13T13:42:57;18.40;70.01
69009;SHT31;56065;52.472;13.380;2023-03-13T13:45:26;18.16;70.25
69009;SHT31;56065;52.472;13.380;2023-03-13T13:48:12;18.16;70.77
69009;SHT31;56065;52.472;13.380;2023-03-13T13:50:39;17.79;71.81
69009;SHT31;56065;52.472;13.380;2023-03-13T13:53:32;17.84;72.41
69009;SHT31;56065;52.472;13.380;2023-03-13T13:56:42;17.67;72.65
69009;SHT31;56065;52.472;13.380;2023-03-13T13:59:30;17.58;73.24
69009;SHT31;56065;52.472;13.380;2023-03-13T14:07:23;17.95;72.22
69009;SHT31;56065;52.472;13.380;2023-03-13T14:12:39;18.33;71.75
69009;SHT31;56065;52.472;13.380;2023-03-13T14:15:19;18.56;71.17
69009;SHT31;56065;52.472;13.380;2023-03-13T14:17:50;18.43;70.68
69009;SHT31;56065;52.472;13.380;2023-03-13T14:20:25;18.26;70.58
69009;SHT31;56065;52.472;13.380;2023-03-13T14:22:55;17.74;72.26
69009;SHT31;56065;52.472;13.380;2023-03-13T14:25:22;17.99;72.09
69009;SHT31;56065;52.472;13.380;2023-03-13T14:27:49;18.32;71.28
69009;SHT31;56065;52.472;13.380;2023-03-13T14:30:17;18.13;71.60
69009;SHT31;56065;52.472;13.380;2023-03-13T14:32:42;17.58;73.17
69009;SHT31;56065;52.472;13.380;2023-03-13T14:35:10;17.58;73.42
69009;SHT31;56065;52.472;13.380;2023-03-13T14:37:44;17.54;73.32
69009;SHT31;56065;52.472;13.380;2023-03-13T14:42:49;17.84;72.55
69009;SHT31;56065;52.472;13.380;2023-03-13T14:45:21;17.85;72.07
69009;SHT31;56065;52.472;13.380;2023-03-13T14:47:49;17.77;72.54
69009;SHT31;56065;52.472;13.380;2023-03-13T14:50:16;17.51;73.06
69009;SHT31;56065;52.472;13.380;2023-03-13T14:52:48;17.55;73.19
69009;SHT31;56065;52.472;13.380;2023-03-13T14:57:59;17.57;72.89
69009;SHT31;56065;52.472;13.380;2023-03-13T15:08:33;17.34;72.94
69009;SHT31;56065;52.472;13.380;2023-03-13T15:10:59;17.30;73.43
69009;SHT31;56065;52.472;13.380;2023-03-13T15:13:33;17.57;73.16
69009;SHT31;56065;52.472;13.380;2023-03-13T15:16:00;17.65;72.50
69009;SHT31;56065;52.472;13.380;2023-03-13T15:18:31;17.75;72.10
69009;SHT31;56065;52.472;13.380;2023-03-13T15:23:40;17.65;72.32
69009;SHT31;56065;52.472;13.380;2023-03-13T15:26:06;17.50;72.24
69009;SHT31;56065;52.472;13.380;2023-03-13T15:28:32;17.81;72.19
69009;SHT31;56065;52.472;13.380;2023-03-13T15:30:57;17.77;71.49
69009;SHT31;56065;52.472;13.380;2023-03-13T15:33:26;17.82;71.30
69009;SHT31;56065;52.472;13.380;2023-03-13T15:35:52;17.82;71.48
69009;SHT31;56065;52.472;13.380;2023-03-13T15:38:20;17.61;71.72
69009;SHT31;56065;52.472;13.380;2023-03-13T15:40:46;17.37;72.38
69009;SHT31;56065;52.472;13.380;2023-03-13T15:43:12;17.36;72.73
69009;SHT31;56065;52.472;13.380;2023-03-13T15:45:40;17.34;72.89
69009;SHT31;56065;52.472;13.380;2023-03-13T15:48:17;17.17;72.84
69009;SHT31;56065;52.472;13.380;2023-03-13T15:50:44;17.15;73.46
69009;SHT31;56065;52.472;13.380;2023-03-13T15:53:30;17.09;73.40
69009;SHT31;56065;52.472;13.380;2023-03-13T15:55:57;17.16;73.39
69009;SHT31;56065;52.472;13.380;2023-03-13T15:58:24;17.13;73.74
69009;SHT31;56065;52.472;13.380;2023-03-13T16:00:50;17.03;73.85
69009;SHT31;56065;52.472;13.380;2023-03-13T16:03:18;16.93;74.22
69009;SHT31;56065;52.472;13.380;2023-03-13T16:05:46;17.07;74.09
69009;SHT31;56065;52.472;13.380;2023-03-13T16:08:14;16.99;74.17
69009;SHT31;56065;52.472;13.380;2023-03-13T16:10:40;16.85;74.92
69009;SHT31;56065;52.472;13.380;2023-03-13T16:13:05;16.92;74.49
69009;SHT31;56065;52.472;13.380;2023-03-13T16:15:33;16.96;74.35
69009;SHT31;56065;52.472;13.380;2023-03-13T16:17:58;16.80;74.84
69009;SHT31;56065;52.472;13.380;2023-03-13T16:20:23;16.82;74.74
69009;SHT31;56065;52.472;13.380;2023-03-13T16:22:50;16.69;75.10
69009;SHT31;56065;52.472;13.380;2023-03-13T16:25:16;16.54;75.31
69009;SHT31;56065;52.472;13.380;2023-03-13T16:27:42;16.56;75.44
69009;SHT31;56065;52.472;13.380;2023-03-13T16:30:25;16.45;75.55
69009;SHT31;56065;52.472;13.380;2023-03-13T16:32:51;16.49;75.41
69009;SHT31;56065;52.472;13.380;2023-03-13T16:35:16;16.35;75.96
69009;SHT31;56065;52.472;13.380;2023-03-13T16:37:42;16.36;75.92
69009;SHT31;56065;52.472;13.380;2023-03-13T16:40:16;16.36;75.93
69009;SHT31;56065;52.472;13.380;2023-03-13T16:42:42;16.35;76.02
69009;SHT31;56065;52.472;13.380;2023-03-13T16:45:08;16.51;75.62
69009;SHT31;56065;52.472;13.380;2023-03-13T16:47:33;16.35;75.81
69009;SHT31;56065;52.472;13.380;2023-03-13T16:50:09;16.24;76.04
69009;SHT31;56065;52.472;13.380;2023-03-13T16:52:36;16.15;76.51
69009;SHT31;56065;52.472;13.380;2023-03-13T16:55:02;16.21;76.51
69009;SHT31;56065;52.472;13.380;2023-03-13T16:57:27;16.21;76.43
69009;SHT31;56065;52.472;13.380;2023-03-13T16:59:53;16.17;76.44
69009;SHT31;56065;52.472;13.380;2023-03-13T17:02:19;16.14;76.74
69009;SHT31;56065;52.472;13.380;2023-03-13T17:04:45;16.11;76.79
69009;SHT31;56065;52.472;13.380;2023-03-13T17:07:20;16.10;76.58
69009;SHT31;56065;52.472;13.380;2023-03-13T17:09:47;16.00;77.06
69009;SHT31;56065;52.472;13.380;2023-03-13T17:12:13;16.07;76.79
69009;SHT31;56065;52.472;13.380;2023-03-13T17:14:38;16.07;76.76
69009;SHT31;56065;52.472;13.380;2023-03-13T17:17:04;15.98;76.91
69009;SHT31;56065;52.472;13.380;2023-03-13T17:19:29;15.89;77.21
69009;SHT31;56065;52.472;13.380;2023-03-13T17:21:55;15.90;77.06
69009;SHT31;56065;52.472;13.380;2023-03-13T17:24:20;15.80;77.36
69009;SHT31;56065;52.472;13.380;2023-03-13T17:26:46;15.74;77.67